createdAt,value
2019-03-11T00:01:02.161Z,81.16
2019-03-11T00:03:26.634Z,81.86
2019-03-11T00:05:51.040Z,82.02
2019-03-11T00:08:15.475Z,81.85
2019-03-11T00:10:39.947Z,81.83
2019-03-11T00:13:04.519Z,81.62
2019-03-11T00:15:29.031Z,81.70
2019-03-11T00:17:53.540Z,81.48
2019-03-11T00:20:17.945Z,81.73
2019-03-11T00:22:42.378Z,81.50
2019-03-11T00:25:07.418Z,81.26
2019-03-11T00:27:31.850Z,81.02
2019-03-11T00:29:56.276Z,81.13
2019-03-11T00:32:20.777Z,81.17
2019-03-11T00:34:45.279Z,80.97
2019-03-11T00:37:09.722Z,81.71
2019-03-11T00:39:34.139Z,81.38
2019-03-11T00:41:58.587Z,81.10
2019-03-11T00:44:22.998Z,80.92
2019-03-11T00:46:47.413Z,80.15
2019-03-11T00:49:11.857Z,80.66
2019-03-11T00:51:36.259Z,81.02
2019-03-11T00:54:00.694Z,80.67
2019-03-11T00:56:25.170Z,80.39
2019-03-11T00:58:49.608Z,80.52
2019-03-11T01:01:14.090Z,80.77
2019-03-11T01:03:38.524Z,80.86
2019-03-11T01:06:02.938Z,80.94
2019-03-11T01:08:29.160Z,80.72
2019-03-11T01:10:53.537Z,80.96
2019-03-11T01:13:18.022Z,81.16
2019-03-11T01:15:42.569Z,80.64
2019-03-11T01:18:07.004Z,81.11
2019-03-11T01:20:31.408Z,81.22
2019-03-11T01:22:55.896Z,80.90
2019-03-11T01:25:20.388Z,80.63
2019-03-11T01:27:44.869Z,80.96
2019-03-11T01:30:12.268Z,81.17
2019-03-11T01:32:36.662Z,81.47
2019-03-11T01:35:01.090Z,81.43
2019-03-11T01:37:25.553Z,81.14
2019-03-11T01:39:50.012Z,81.12
2019-03-11T01:42:14.413Z,81.22
2019-03-11T01:44:38.833Z,81.36
2019-03-11T01:47:03.249Z,81.90
2019-03-11T01:49:27.667Z,81.62
2019-03-11T01:51:52.062Z,81.53
2019-03-11T01:54:16.485Z,81.34
2019-03-11T01:56:40.888Z,81.10
2019-03-11T01:59:05.309Z,80.83
2019-03-11T02:01:30.086Z,80.91
2019-03-11T02:03:54.575Z,81.40
2019-03-11T02:06:18.982Z,81.23
2019-03-11T02:08:43.376Z,80.98
2019-03-11T02:11:07.917Z,81.00
2019-03-11T02:13:32.351Z,80.78
2019-03-11T02:15:56.850Z,80.93
2019-03-11T02:18:21.249Z,80.67
2019-03-11T02:20:45.683Z,81.01
2019-03-11T02:23:10.089Z,80.87
2019-03-11T02:25:34.590Z,81.05
2019-03-11T02:27:58.988Z,80.61
2019-03-11T02:30:23.483Z,80.22
2019-03-11T02:32:47.905Z,80.01
2019-03-11T02:35:12.457Z,79.95
2019-03-11T02:37:36.942Z,79.65
2019-03-11T02:40:01.377Z,79.49
2019-03-11T02:42:25.840Z,79.54
2019-03-11T02:44:50.284Z,79.16
2019-03-11T02:47:14.743Z,79.69
2019-03-11T02:49:39.132Z,79.53
2019-03-11T02:52:03.563Z,79.54
2019-03-11T02:54:27.959Z,79.43
2019-03-11T02:56:52.369Z,79.38
2019-03-11T02:59:16.808Z,79.11
2019-03-11T03:01:45.905Z,79.26
2019-03-11T03:04:11.951Z,79.13
2019-03-11T03:06:36.441Z,79.14
2019-03-11T03:09:00.987Z,78.87
2019-03-11T03:11:25.425Z,78.54
2019-03-11T03:13:49.809Z,78.98
2019-03-11T03:16:14.228Z,78.34
2019-03-11T03:18:38.713Z,78.23
2019-03-11T03:21:03.154Z,78.38
2019-03-11T03:23:27.541Z,78.61
2019-03-11T03:25:51.982Z,78.64
2019-03-11T03:28:16.444Z,78.51
2019-03-11T03:30:40.994Z,78.50
2019-03-11T03:33:05.562Z,78.32
2019-03-11T03:35:30.027Z,77.83
2019-03-11T03:37:54.450Z,77.66
2019-03-11T03:40:18.995Z,78.12
2019-03-11T03:42:43.627Z,77.45
2019-03-11T03:45:34.950Z,77.50
2019-03-11T03:48:00.026Z,77.46
2019-03-11T03:50:26.659Z,77.33
2019-03-11T03:52:51.217Z,77.00
2019-03-11T03:55:15.766Z,77.25
2019-03-11T03:57:40.192Z,77.41
2019-03-11T04:00:09.498Z,77.74
2019-03-11T04:02:34.074Z,77.75
2019-03-11T04:04:58.478Z,77.78
2019-03-11T04:07:22.902Z,77.64
2019-03-11T04:09:47.368Z,77.49
2019-03-11T04:12:11.788Z,77.44
2019-03-11T04:17:34.248Z,77.36
2019-03-11T04:19:58.661Z,77.04
2019-03-11T04:22:23.342Z,77.04
2019-03-11T04:24:47.729Z,76.89
2019-03-11T04:27:12.335Z,76.95
2019-03-11T04:29:36.752Z,76.91
2019-03-11T04:32:01.250Z,77.01
2019-03-11T04:34:25.720Z,77.16
2019-03-11T04:36:50.217Z,76.89
2019-03-11T04:39:14.620Z,76.84
2019-03-11T04:41:39.087Z,76.98
2019-03-11T04:44:03.507Z,76.90
2019-03-11T04:46:27.907Z,76.72
2019-03-11T04:48:52.342Z,76.87
2019-03-11T04:51:16.744Z,76.95
2019-03-11T04:53:41.167Z,76.69
2019-03-11T04:56:05.570Z,76.45
2019-03-11T04:58:30.137Z,76.47
2019-03-11T05:00:54.540Z,76.44
2019-03-11T05:03:19.038Z,76.06
2019-03-11T05:05:43.511Z,75.89
2019-03-11T05:08:08.022Z,76.11
2019-03-11T05:10:32.397Z,76.02
2019-03-11T05:12:56.889Z,76.30
2019-03-11T05:15:21.356Z,76.40
2019-03-11T05:17:48.357Z,76.75
2019-03-11T05:20:13.490Z,76.31
2019-03-11T05:22:37.985Z,76.23
2019-03-11T05:25:02.528Z,76.97
2019-03-11T05:27:26.923Z,76.78
2019-03-11T05:29:51.488Z,76.72
2019-03-11T05:32:15.896Z,76.68
2019-03-11T05:34:40.314Z,76.46
2019-03-11T05:37:04.709Z,77.11
2019-03-11T05:39:29.126Z,76.93
2019-03-11T05:41:53.553Z,77.06
2019-03-11T05:44:17.962Z,77.29
2019-03-11T05:46:42.436Z,77.08
2019-03-11T05:49:06.858Z,77.20
2019-03-11T05:51:32.152Z,77.13
2019-03-11T05:53:57.517Z,77.48
2019-03-11T05:56:21.909Z,77.87
2019-03-11T05:58:46.310Z,77.99
2019-03-11T06:01:10.726Z,77.96
2019-03-11T06:03:35.133Z,78.18
2019-03-11T06:05:59.563Z,78.15
2019-03-11T06:08:24.496Z,78.06
2019-03-11T06:10:48.939Z,77.89
2019-03-11T06:13:13.338Z,77.85
2019-03-11T06:15:37.768Z,78.19
2019-03-11T06:18:02.177Z,77.54
2019-03-11T06:20:31.041Z,77.98
2019-03-11T06:22:55.899Z,77.97
2019-03-11T06:25:20.352Z,78.41
2019-03-11T06:27:45.516Z,78.55
2019-03-11T06:30:11.145Z,78.22
2019-03-11T06:32:35.559Z,77.79
2019-03-11T06:34:59.965Z,77.84
2019-03-11T06:37:24.390Z,77.78
2019-03-11T06:39:48.839Z,77.09
2019-03-11T06:42:13.258Z,77.63
2019-03-11T06:44:37.658Z,77.40
2019-03-11T06:47:02.089Z,77.07
2019-03-11T06:49:26.508Z,77.27
2019-03-11T06:51:50.955Z,77.34
2019-03-11T06:54:15.330Z,77.04
2019-03-11T06:56:39.736Z,76.94
2019-03-11T06:59:04.234Z,77.16
2019-03-11T07:01:28.653Z,76.98
2019-03-11T07:03:53.104Z,76.45
2019-03-11T07:06:17.543Z,76.59
2019-03-11T07:08:41.937Z,76.15
2019-03-11T07:11:06.420Z,76.53
2019-03-11T07:13:30.915Z,76.39
2019-03-11T07:15:55.322Z,76.65
2019-03-11T07:18:19.774Z,76.75
2019-03-11T07:20:44.173Z,76.81
2019-03-11T07:23:08.674Z,77.09
2019-03-11T07:25:33.086Z,77.14
2019-03-11T07:27:57.505Z,76.93
2019-03-11T07:30:22.062Z,76.75
2019-03-11T07:32:46.481Z,77.63
2019-03-11T07:35:11.020Z,77.20
2019-03-11T07:37:35.461Z,77.78
2019-03-11T07:39:59.866Z,77.27
2019-03-11T07:42:24.315Z,77.23
2019-03-11T07:44:48.761Z,76.91
2019-03-11T07:47:13.185Z,77.00
2019-03-11T07:49:37.603Z,76.42
2019-03-11T07:52:02.728Z,76.80
2019-03-11T07:54:35.521Z,76.28
2019-03-11T07:56:53.509Z,76.05
2019-03-11T07:59:17.940Z,76.46
2019-03-11T08:01:42.412Z,76.06
2019-03-11T08:04:06.962Z,76.46
2019-03-11T08:06:31.370Z,76.22
2019-03-11T08:08:55.806Z,75.82
2019-03-11T08:11:20.209Z,75.83
2019-03-11T08:13:44.645Z,76.14
2019-03-11T08:16:09.054Z,75.95
2019-03-11T08:18:35.345Z,75.81
2019-03-11T08:20:59.657Z,75.62
2019-03-11T08:23:24.086Z,75.61
2019-03-11T08:25:48.564Z,75.31
2019-03-11T08:28:12.998Z,75.33
2019-03-11T08:30:37.530Z,75.27
2019-03-11T08:33:02.035Z,75.45
2019-03-11T08:35:26.436Z,74.91
2019-03-11T08:37:50.903Z,74.95
2019-03-11T08:40:20.244Z,74.82
2019-03-11T08:42:44.718Z,74.43
2019-03-11T08:45:20.048Z,74.42
2019-03-11T08:47:44.523Z,74.54
2019-03-11T08:50:23.377Z,74.01
2019-03-11T08:52:47.777Z,73.95
2019-03-11T08:55:12.736Z,74.44
2019-03-11T08:57:39.935Z,74.15
2019-03-11T09:00:04.862Z,74.04
2019-03-11T09:02:29.269Z,73.57
2019-03-11T09:04:53.688Z,73.60
2019-03-11T09:07:18.069Z,73.66
2019-03-11T09:09:42.511Z,73.50
2019-03-11T09:12:06.899Z,73.35
2019-03-11T09:14:31.325Z,73.58
2019-03-11T09:16:55.814Z,73.50
2019-03-11T09:19:20.260Z,73.48
2019-03-11T09:21:44.741Z,73.26
2019-03-11T09:24:18.828Z,73.39
2019-03-11T09:26:35.342Z,72.93
2019-03-11T09:28:59.756Z,73.39
2019-03-11T09:31:24.169Z,73.45
2019-03-11T09:33:48.574Z,73.59
2019-03-11T09:36:13.007Z,73.43
2019-03-11T09:38:37.402Z,73.38
2019-03-11T09:41:01.842Z,73.54
2019-03-11T09:43:27.339Z,73.49
2019-03-11T09:45:51.813Z,73.56
2019-03-11T09:48:16.227Z,73.37
2019-03-11T09:50:40.650Z,73.28
2019-03-11T09:53:05.114Z,73.20
2019-03-11T09:55:29.878Z,72.91
2019-03-11T09:57:54.274Z,72.88
2019-03-11T10:00:26.849Z,73.27
2019-03-11T10:02:53.333Z,72.76
2019-03-11T10:05:17.783Z,73.17
2019-03-11T10:07:42.266Z,73.37
2019-03-11T10:10:12.191Z,73.47
2019-03-11T10:12:36.619Z,73.48
2019-03-11T10:15:01.042Z,73.20
2019-03-11T10:17:25.440Z,72.94
2019-03-11T10:19:49.880Z,73.02
2019-03-11T10:22:14.394Z,72.75
2019-03-11T10:24:38.813Z,72.96
2019-03-11T10:27:03.245Z,72.58
2019-03-11T10:29:27.661Z,72.85
2019-03-11T10:31:52.094Z,72.82
2019-03-11T10:34:16.519Z,72.63
2019-03-11T10:36:40.956Z,72.75
2019-03-11T10:39:07.004Z,72.93
2019-03-11T10:41:31.440Z,72.55
2019-03-11T10:43:55.844Z,71.81
2019-03-11T10:46:20.281Z,71.04
2019-03-11T10:48:44.687Z,71.11
2019-03-11T10:51:09.237Z,70.19
2019-03-11T10:53:33.675Z,71.26
2019-03-11T10:55:59.938Z,71.13
2019-03-11T10:58:24.278Z,71.03
2019-03-11T11:00:48.765Z,71.64
2019-03-11T11:03:13.261Z,71.81
2019-03-11T11:05:37.671Z,72.79
2019-03-11T11:08:02.097Z,73.29
2019-03-11T11:10:26.684Z,74.43
2019-03-11T11:12:51.452Z,74.55
2019-03-11T11:15:24.629Z,74.87
2019-03-11T11:17:49.197Z,74.79
2019-03-11T11:20:21.018Z,75.12
2019-03-11T11:22:45.513Z,75.58
2019-03-11T11:25:12.878Z,75.96
2019-03-11T11:27:37.382Z,75.55
2019-03-11T11:30:01.862Z,75.21
2019-03-11T11:32:26.369Z,74.60
2019-03-11T11:34:51.213Z,75.45
2019-03-11T11:37:15.722Z,75.82
2019-03-11T11:39:40.128Z,74.58
2019-03-11T11:42:04.686Z,74.53
2019-03-11T11:44:29.156Z,74.62
2019-03-11T11:46:53.677Z,74.40
2019-03-11T11:49:18.159Z,74.49
2019-03-11T11:51:42.644Z,74.04
2019-03-11T11:54:07.074Z,73.37
2019-03-11T11:56:31.475Z,72.78
2019-03-11T11:58:55.889Z,71.44
2019-03-11T12:01:20.387Z,72.50
2019-03-11T12:03:44.879Z,72.30
2019-03-11T12:06:09.440Z,71.91
2019-03-11T12:08:33.860Z,72.55
2019-03-11T12:10:58.264Z,72.97
2019-03-11T12:13:22.830Z,71.73
2019-03-11T12:15:47.296Z,72.30
2019-03-11T12:18:11.803Z,71.70
2019-03-11T12:20:36.274Z,72.14
2019-03-11T12:23:00.763Z,71.16
2019-03-11T12:25:25.347Z,71.14
2019-03-11T12:27:54.067Z,71.91
2019-03-11T12:30:28.384Z,71.58
2019-03-11T12:32:52.985Z,71.55
2019-03-11T12:35:17.640Z,71.60
2019-03-11T12:37:42.303Z,71.59
2019-03-11T12:40:09.954Z,70.89
2019-03-11T12:42:34.369Z,70.74
2019-03-11T12:44:58.810Z,69.94
2019-03-11T12:47:23.217Z,70.11
2019-03-11T12:49:47.714Z,70.24
2019-03-11T12:52:12.141Z,69.99
2019-03-11T12:54:42.531Z,67.73
2019-03-11T12:57:07.007Z,68.96
2019-03-11T12:59:31.453Z,69.56
2019-03-11T13:01:55.931Z,69.31
2019-03-11T13:04:20.378Z,69.42
2019-03-11T13:06:44.934Z,68.53
2019-03-11T13:09:09.381Z,68.92
2019-03-11T13:11:33.794Z,69.08
2019-03-11T13:13:58.212Z,68.97
2019-03-11T13:16:22.616Z,68.56
2019-03-11T13:18:47.032Z,68.60
2019-03-11T13:21:17.698Z,68.61
2019-03-11T13:23:42.181Z,69.05
2019-03-11T13:26:06.759Z,67.97
2019-03-11T13:28:31.172Z,65.68
2019-03-11T13:30:55.618Z,66.73
2019-03-11T13:33:20.063Z,67.36
2019-03-11T13:35:44.660Z,67.71
2019-03-11T13:38:09.070Z,68.40
2019-03-11T13:40:33.498Z,68.65
2019-03-11T13:42:57.900Z,68.73
2019-03-11T13:45:22.470Z,69.23
2019-03-11T13:47:47.102Z,69.47
2019-03-11T13:50:14.022Z,70.41
2019-03-11T13:52:38.521Z,71.32
2019-03-11T13:55:10.175Z,71.65
2019-03-11T13:57:29.500Z,71.83
2019-03-11T13:59:53.922Z,73.05
2019-03-11T14:02:18.423Z,74.78
2019-03-11T14:04:42.832Z,75.09
2019-03-11T14:07:07.331Z,74.92
2019-03-11T14:09:31.808Z,74.62
2019-03-11T14:11:56.622Z,73.19
2019-03-11T14:14:21.026Z,69.07
2019-03-11T14:16:45.464Z,70.61
2019-03-11T14:19:10.097Z,73.07
2019-03-11T14:21:34.529Z,75.07
2019-03-11T14:23:58.942Z,76.49
2019-03-11T14:26:23.445Z,77.00
2019-03-11T14:28:47.917Z,77.31
2019-03-11T14:31:12.436Z,77.28
2019-03-11T14:33:36.842Z,78.01
2019-03-11T14:36:01.276Z,78.19
2019-03-11T14:38:25.693Z,76.48
2019-03-11T14:40:50.168Z,76.89
2019-03-11T14:43:14.597Z,77.66
2019-03-11T14:45:39.083Z,77.51
2019-03-11T14:48:03.754Z,77.51
2019-03-11T14:50:28.229Z,76.95
2019-03-11T14:52:52.679Z,77.48
2019-03-11T14:55:17.320Z,76.98
2019-03-11T14:57:41.736Z,77.18
2019-03-11T15:00:09.356Z,77.41
2019-03-11T15:02:33.932Z,77.57
2019-03-11T15:04:58.291Z,76.70
2019-03-11T15:07:22.688Z,77.03
2019-03-11T15:09:51.304Z,77.87
2019-03-11T15:12:13.214Z,77.83
2019-03-11T15:14:37.711Z,78.94
2019-03-11T15:17:02.215Z,79.51
2019-03-11T15:19:26.620Z,79.14
2019-03-11T15:21:51.102Z,79.68
2019-03-11T15:24:15.605Z,79.46
2019-03-11T15:26:40.113Z,79.15
2019-03-11T15:29:04.648Z,79.69
2019-03-11T15:31:29.215Z,79.20
2019-03-11T15:33:53.682Z,79.97
2019-03-11T15:36:18.166Z,80.19
2019-03-11T15:38:42.660Z,80.00
2019-03-11T15:41:07.064Z,80.13
2019-03-11T15:43:31.508Z,79.75
2019-03-11T15:45:55.915Z,79.84
2019-03-11T15:48:20.343Z,79.67
2019-03-11T15:50:44.812Z,79.42
2019-03-11T15:53:09.319Z,79.49
2019-03-11T15:55:33.800Z,79.67
2019-03-11T15:57:58.344Z,80.02
2019-03-11T16:00:23.742Z,80.07
2019-03-11T16:02:48.525Z,80.09
2019-03-11T16:05:13.468Z,80.12
2019-03-11T16:07:39.524Z,80.37
2019-03-11T16:10:16.005Z,80.25
2019-03-11T16:12:31.355Z,79.83
2019-03-11T16:14:55.767Z,79.64
2019-03-11T16:17:20.330Z,80.21
2019-03-11T16:19:44.793Z,80.41
2019-03-11T16:22:09.312Z,80.08
2019-03-11T16:24:33.734Z,79.32
2019-03-11T16:26:58.216Z,79.92
2019-03-11T16:29:22.648Z,79.91
2019-03-11T16:31:47.131Z,79.29
2019-03-11T16:34:11.590Z,77.70
2019-03-11T16:36:36.070Z,78.52
2019-03-11T16:39:00.514Z,78.72
2019-03-11T16:41:24.918Z,77.91
2019-03-11T16:43:49.443Z,77.63
2019-03-11T16:46:13.852Z,77.70
2019-03-11T16:48:38.482Z,77.02
2019-03-11T16:51:03.022Z,76.50
2019-03-11T16:53:27.544Z,75.80
2019-03-11T16:55:54.835Z,76.06
2019-03-11T16:58:19.262Z,75.45
2019-03-11T17:00:45.688Z,74.60
2019-03-11T17:03:10.260Z,74.67
2019-03-11T17:05:34.730Z,74.44
2019-03-11T17:07:59.118Z,75.54
2019-03-11T17:10:25.013Z,75.96
2019-03-11T17:12:49.563Z,76.05
2019-03-11T17:15:14.336Z,76.05
2019-03-11T17:17:38.879Z,74.68
2019-03-11T17:20:04.336Z,74.26
2019-03-11T17:22:28.829Z,73.80
2019-03-11T17:24:53.313Z,72.59
2019-03-11T17:27:17.705Z,71.94
2019-03-11T17:29:42.144Z,72.09
2019-03-11T17:32:06.689Z,71.56
2019-03-11T17:34:31.120Z,71.35
2019-03-11T17:36:55.517Z,71.48
2019-03-11T17:39:20.090Z,71.97
2019-03-11T17:41:44.497Z,73.25
2019-03-11T17:44:09.076Z,72.67
2019-03-11T17:46:33.626Z,71.77
2019-03-11T17:48:58.156Z,72.64
2019-03-11T17:51:22.721Z,71.82
2019-03-11T17:53:47.738Z,71.60
2019-03-11T17:56:12.312Z,74.14
2019-03-11T17:58:36.811Z,73.39
2019-03-11T18:01:01.334Z,73.18
2019-03-11T18:03:25.887Z,72.63
2019-03-11T18:05:50.457Z,73.19
2019-03-11T18:08:14.969Z,72.41
2019-03-11T18:10:39.487Z,72.37
2019-03-11T18:13:03.960Z,71.59
2019-03-11T18:15:28.663Z,71.65
2019-03-11T18:17:53.140Z,71.66
2019-03-11T18:20:18.940Z,71.38
2019-03-11T18:22:43.413Z,72.16
2019-03-11T18:25:10.304Z,71.19
2019-03-11T18:27:34.736Z,72.12
2019-03-11T18:30:00.063Z,71.28
2019-03-11T18:32:24.769Z,73.59
2019-03-11T18:34:49.191Z,73.79
2019-03-11T18:37:13.758Z,72.94
2019-03-11T18:39:38.228Z,73.83
2019-03-11T18:42:02.644Z,73.12
2019-03-11T18:44:27.069Z,73.02
2019-03-11T18:46:51.525Z,71.68
2019-03-11T18:49:15.864Z,71.67
2019-03-11T18:51:40.306Z,71.78
2019-03-11T18:54:04.948Z,71.15
2019-03-11T18:56:29.423Z,70.77
2019-03-11T18:58:53.843Z,72.38
2019-03-11T19:01:18.261Z,71.45
2019-03-11T19:03:42.681Z,71.07
2019-03-11T19:06:07.318Z,71.47
2019-03-11T19:08:31.712Z,70.69
2019-03-11T19:10:56.176Z,70.31
2019-03-11T19:13:20.573Z,70.46
2019-03-11T19:15:45.208Z,71.42
2019-03-11T19:18:09.646Z,72.64
2019-03-11T19:20:34.133Z,73.89
2019-03-11T19:22:58.522Z,74.27
2019-03-11T19:25:23.037Z,72.23
2019-03-11T19:27:47.548Z,72.87
2019-03-11T19:30:17.416Z,71.98
2019-03-11T19:32:41.800Z,73.41
2019-03-11T19:35:08.040Z,72.59
2019-03-11T19:37:32.491Z,75.46
2019-03-11T19:39:56.875Z,74.59
2019-03-11T19:42:21.372Z,74.01
2019-03-11T19:44:47.444Z,73.53
2019-03-11T19:47:12.249Z,72.48
2019-03-11T19:49:36.677Z,72.19
2019-03-11T19:52:01.172Z,73.59
2019-03-11T19:54:25.701Z,73.16
2019-03-11T19:56:50.156Z,73.55
2019-03-11T19:59:14.650Z,73.11
2019-03-11T20:01:39.082Z,71.90
2019-03-11T20:04:03.631Z,71.93
2019-03-11T20:06:28.130Z,71.25
2019-03-11T20:08:52.657Z,70.58
2019-03-11T20:11:17.094Z,70.95
2019-03-11T20:13:41.597Z,71.05
2019-03-11T20:16:06.191Z,70.64
2019-03-11T20:18:30.790Z,73.08
2019-03-11T20:20:55.334Z,74.26
2019-03-11T20:23:19.808Z,74.63
2019-03-11T20:25:44.401Z,74.58
2019-03-11T20:28:08.993Z,76.02
2019-03-11T20:30:33.517Z,75.67
2019-03-11T20:32:57.969Z,77.23
2019-03-11T20:35:22.465Z,78.04
2019-03-11T20:37:47.106Z,78.94
2019-03-11T20:40:12.701Z,79.80
2019-03-11T20:42:37.226Z,78.35
2019-03-11T20:45:01.820Z,77.94
2019-03-11T20:47:26.261Z,79.05
2019-03-11T20:49:50.694Z,77.48
2019-03-11T20:52:15.225Z,76.17
2019-03-11T20:54:39.709Z,77.50
2019-03-11T20:57:04.164Z,77.10
2019-03-11T20:59:28.584Z,77.44
2019-03-11T21:01:53.147Z,78.84
2019-03-11T21:04:17.644Z,80.07
2019-03-11T21:06:42.022Z,80.36
2019-03-11T21:09:08.520Z,80.56
2019-03-11T21:11:32.934Z,80.62
2019-03-11T21:13:57.398Z,80.43
2019-03-11T21:16:21.874Z,80.07
2019-03-11T21:18:46.322Z,80.92
2019-03-11T21:21:10.797Z,80.48
2019-03-11T21:23:35.194Z,80.21
2019-03-11T21:25:59.742Z,80.71
2019-03-11T21:28:24.410Z,80.80
2019-03-11T21:30:48.886Z,80.47
2019-03-11T21:33:13.298Z,80.03
2019-03-11T21:35:37.755Z,80.04
2019-03-11T21:38:02.338Z,80.12
2019-03-11T21:40:27.126Z,79.68
2019-03-11T21:42:51.967Z,79.40
2019-03-11T21:45:17.489Z,79.79
2019-03-11T21:47:42.128Z,80.06
2019-03-11T21:50:12.146Z,80.38
2019-03-11T21:52:36.665Z,80.89
2019-03-11T21:55:01.168Z,81.16
2019-03-11T21:57:25.783Z,81.07
2019-03-11T21:59:50.178Z,81.58
2019-03-11T22:02:14.636Z,81.57
2019-03-11T22:04:39.076Z,80.59
2019-03-11T22:07:03.544Z,80.44
2019-03-11T22:09:27.978Z,79.71
2019-03-11T22:11:52.397Z,79.91
2019-03-11T22:14:16.833Z,79.25
2019-03-11T22:16:41.234Z,78.91
2019-03-11T22:19:05.730Z,76.99
2019-03-11T22:21:30.152Z,76.92
2019-03-11T22:23:54.562Z,77.00
2019-03-11T22:26:18.993Z,78.34
2019-03-11T22:28:43.393Z,79.33
2019-03-11T22:31:07.837Z,80.25
2019-03-11T22:33:34.745Z,80.54
2019-03-11T22:35:58.373Z,80.21
2019-03-11T22:38:22.776Z,79.78
2019-03-11T22:40:47.198Z,78.85
2019-03-11T22:43:11.714Z,78.63
2019-03-11T22:45:36.153Z,78.74
2019-03-11T22:48:00.551Z,79.06
2019-03-11T22:50:24.993Z,79.37
2019-03-11T22:52:49.870Z,79.88
2019-03-11T22:55:14.512Z,79.30
2019-03-11T22:57:39.081Z,79.05
2019-03-11T23:00:05.170Z,79.15
2019-03-11T23:02:29.658Z,79.19
2019-03-11T23:04:54.070Z,79.58
2019-03-11T23:07:18.675Z,79.76
2019-03-11T23:09:43.106Z,80.44
2019-03-11T23:12:07.709Z,80.94
2019-03-11T23:14:32.185Z,80.67
2019-03-11T23:16:56.801Z,80.49
2019-03-11T23:19:21.240Z,80.92
2019-03-11T23:21:45.646Z,81.16
2019-03-11T23:24:10.159Z,81.30
2019-03-11T23:26:34.564Z,81.74
2019-03-11T23:28:58.999Z,82.02
2019-03-11T23:31:23.387Z,82.02
2019-03-11T23:33:47.895Z,82.18
2019-03-11T23:36:12.382Z,82.64
2019-03-11T23:38:36.814Z,82.39
2019-03-11T23:41:01.255Z,81.90
2019-03-11T23:43:25.663Z,81.97
2019-03-11T23:45:50.081Z,82.16
2019-03-11T23:48:14.575Z,81.68
2019-03-11T23:50:39.017Z,80.96
2019-03-11T23:53:03.424Z,81.38
2019-03-11T23:55:27.865Z,81.81
2019-03-11T23:57:52.269Z,81.71
